メインページ
METAR-TAF:

METAR-TAF

空港 :

エルドラド国際空港

ボゴタ, コロンビア

緯度: 04-43N, 経度: 074-09W, 海抜: 2547m

現時点の気象観測

当レポートは48分前の11:00(UTC)に作成
変向風 2kt
気温 8°C
湿度 93%
気圧 1027 hPa
視程10km以上
高度2000ftの雲はほとんどない
高度8000ftの雲は散在している

METAR: SKBO 221100Z VRB02KT 9999 FEW020 SCT080 08/07 A3033

時間: 06:48 (11:48 UTC)

予報

当レポートは48分前の11:00(UTC)に作成
予報は22日の 12時(UTC)から 23日の 12時(UTC)まで有効
北東の風 6kt
視程10km以上
高度2000ftの雲は散在している
22日の 12時(UTC)から 22日の 14時(UTC)まで一時的に
視程: 8000m
高度2300ftの千切れ雲あり
近辺でにわか雨
22日の 15時(UTC)から 22日の 17時(UTC)まで徐々に
西の風 10kt
22日の 21時(UTC)から 22日の 24時(UTC)まで一時的に
視程: 8000m
高度2000ftの雲は散在している
霧雨

TAF: SKBO 221100Z 2212/2312 04006KT 9999 SCT020 TEMPO 2212/2214 8000 VCSH BKN023 BECMG 2215/2217 26010KT TEMPO 2221/2224 8000 DZ SCT020 TX19/2218Z TN10/2311Z

4,000以上の空港の気象観測と天気予報(METAR報とTAF報)

利用可能な観測所は地図上に黄色い丸と赤い丸で示す。

丸の上にカーソルを重ねると観測所名を参照できる。

次にクリックすると気象観測と天気予報を参照できる。

マップの切り替え:黒色「×」印の緑ボタンをクリックして拡大、「-」印の緑ボタンをクリックして縮小、緑色の三角印をクリックして隣りの地図に切り替え


METAR-TAF: